createdAt,value
2022-10-29T00:00:57.196Z,12.80
2022-10-29T00:03:25.030Z,12.80
2022-10-29T00:06:12.197Z,12.80
2022-10-29T00:08:40.352Z,12.80
2022-10-29T00:11:18.780Z,12.70
2022-10-29T00:13:47.126Z,12.70
2022-10-29T00:16:22.684Z,12.70
2022-10-29T00:18:49.724Z,12.70
2022-10-29T00:21:19.372Z,12.70
2022-10-29T00:23:47.155Z,12.60
2022-10-29T00:26:14.646Z,12.70
2022-10-29T00:28:41.569Z,12.70
2022-10-29T00:31:16.739Z,12.70
2022-10-29T00:33:43.602Z,12.60
2022-10-29T00:36:15.868Z,12.70
2022-10-29T00:38:43.265Z,12.70
2022-10-29T00:41:14.423Z,12.70
2022-10-29T00:43:45.891Z,12.70
2022-10-29T00:46:17.783Z,12.70
2022-10-29T00:48:48.129Z,12.70
2022-10-29T00:51:16.625Z,12.70
2022-10-29T00:53:52.611Z,12.60
2022-10-29T00:56:20.682Z,12.70
2022-10-29T00:58:48.287Z,12.60
2022-10-29T01:01:15.685Z,12.60
2022-10-29T01:03:43.201Z,12.60
2022-10-29T01:06:10.324Z,12.60
2022-10-29T01:08:37.242Z,12.60
2022-10-29T01:11:10.110Z,12.60
2022-10-29T01:14:15.558Z,12.70
2022-10-29T01:17:10.251Z,12.70
2022-10-29T01:19:40.131Z,12.70
2022-10-29T01:22:16.138Z,12.70
2022-10-29T01:24:42.903Z,12.60
2022-10-29T01:27:38.491Z,12.60
2022-10-29T01:30:18.807Z,12.70
2022-10-29T01:32:48.370Z,12.70
2022-10-29T01:35:39.620Z,12.70
2022-10-29T01:38:18.302Z,12.70
2022-10-29T01:41:06.818Z,12.60
2022-10-29T01:43:38.736Z,12.60
2022-10-29T01:46:17.661Z,12.60
2022-10-29T01:48:48.639Z,12.60
2022-10-29T01:51:28.597Z,12.60
2022-10-29T01:53:57.425Z,12.60
2022-10-29T01:56:24.287Z,12.60
2022-10-29T01:58:55.368Z,12.60
2022-10-29T02:01:31.197Z,12.60
2022-10-29T02:04:23.746Z,12.60
2022-10-29T02:06:56.300Z,12.70
2022-10-29T02:09:32.719Z,12.70
2022-10-29T02:12:09.073Z,12.70
2022-10-29T02:14:40.977Z,12.70
2022-10-29T02:17:08.230Z,12.70
2022-10-29T02:19:36.316Z,12.70
2022-10-29T02:22:03.416Z,12.70
2022-10-29T02:24:30.396Z,12.80
2022-10-29T02:26:57.211Z,12.80
2022-10-29T02:29:24.047Z,12.90
2022-10-29T02:31:50.967Z,12.90
2022-10-29T02:34:17.802Z,12.90
2022-10-29T02:36:44.820Z,13.00
2022-10-29T02:39:11.723Z,13.00
2022-10-29T02:41:38.581Z,12.90
2022-10-29T02:44:05.423Z,12.90
2022-10-29T02:46:32.305Z,13.00
2022-10-29T02:48:59.117Z,12.90
2022-10-29T02:51:25.954Z,12.90
2022-10-29T02:53:52.766Z,12.90
2022-10-29T02:56:19.599Z,12.90
2022-10-29T02:58:46.435Z,12.90
2022-10-29T03:01:13.377Z,12.90
2022-10-29T03:03:40.232Z,12.90
2022-10-29T03:06:13.632Z,12.90
2022-10-29T03:08:40.677Z,12.90
2022-10-29T03:11:07.631Z,12.90
2022-10-29T03:13:34.553Z,12.90
2022-10-29T03:16:01.532Z,13.00
2022-10-29T03:18:28.386Z,13.00
2022-10-29T03:20:55.442Z,12.90
2022-10-29T03:23:22.581Z,12.90
2022-10-29T03:25:55.887Z,12.90
2022-10-29T03:28:24.565Z,12.90
2022-10-29T03:30:51.372Z,12.90
2022-10-29T03:33:18.177Z,12.90
2022-10-29T03:35:45.173Z,12.90
2022-10-29T03:38:12.332Z,12.90
2022-10-29T03:40:39.197Z,12.90
2022-10-29T03:43:06.054Z,13.00
2022-10-29T03:45:32.914Z,13.00
2022-10-29T03:47:59.736Z,13.10
2022-10-29T03:50:26.668Z,13.10
2022-10-29T03:52:53.532Z,13.20
2022-10-29T03:55:20.372Z,13.10
2022-10-29T03:57:47.194Z,13.10
2022-10-29T04:00:14.571Z,13.20
2022-10-29T04:02:41.721Z,13.10
2022-10-29T04:05:09.198Z,13.20
2022-10-29T04:07:36.063Z,13.20
2022-10-29T04:10:02.979Z,13.30
2022-10-29T04:12:29.854Z,13.30
2022-10-29T04:14:56.690Z,13.30
2022-10-29T04:17:23.559Z,13.30
2022-10-29T04:19:50.413Z,13.30
2022-10-29T04:24:32.463Z,13.20
2022-10-29T04:30:40.286Z,13.30
2022-10-29T04:33:07.093Z,13.30
2022-10-29T04:35:33.925Z,13.30
2022-10-29T04:38:07.438Z,13.30
2022-10-29T04:40:34.339Z,13.30
2022-10-29T04:43:01.180Z,13.40
2022-10-29T04:45:28.103Z,13.40
2022-10-29T04:48:05.926Z,13.40
2022-10-29T04:50:34.089Z,13.40
2022-10-29T04:53:02.212Z,13.40
2022-10-29T04:55:29.319Z,13.40
2022-10-29T04:57:56.712Z,13.40
2022-10-29T05:00:24.222Z,13.40
2022-10-29T05:02:52.298Z,13.40
2022-10-29T05:05:20.650Z,13.40
2022-10-29T05:07:47.934Z,13.40
2022-10-29T05:10:14.900Z,13.40
2022-10-29T05:12:41.746Z,13.40
2022-10-29T05:15:08.885Z,13.50
2022-10-29T05:17:38.822Z,13.40
2022-10-29T05:20:06.635Z,13.40
2022-10-29T05:22:33.453Z,13.50
2022-10-29T05:25:00.343Z,13.50
2022-10-29T05:27:27.160Z,13.50
2022-10-29T05:29:54.042Z,13.50
2022-10-29T05:32:21.036Z,13.50
2022-10-29T05:34:47.940Z,13.40
2022-10-29T05:37:14.742Z,13.40
2022-10-29T05:39:41.585Z,13.40
2022-10-29T05:42:08.465Z,13.40
2022-10-29T05:44:35.354Z,13.40
2022-10-29T05:47:02.510Z,13.40
2022-10-29T05:49:29.370Z,13.40
2022-10-29T05:51:56.192Z,13.50
2022-10-29T05:54:23.012Z,13.50
2022-10-29T05:56:49.879Z,13.50
2022-10-29T05:59:16.770Z,13.50
2022-10-29T06:01:43.744Z,13.50
2022-10-29T06:04:10.729Z,13.50
2022-10-29T06:06:38.772Z,13.40
2022-10-29T06:09:05.698Z,13.40
2022-10-29T06:11:32.567Z,13.30
2022-10-29T06:13:59.403Z,13.30
2022-10-29T06:16:26.253Z,13.30
2022-10-29T06:18:53.081Z,13.30
2022-10-29T06:21:19.896Z,13.30
2022-10-29T06:23:46.720Z,13.30
2022-10-29T06:26:13.570Z,13.30
2022-10-29T06:28:40.383Z,13.30
2022-10-29T06:31:07.264Z,13.30
2022-10-29T06:33:34.108Z,13.30
2022-10-29T06:36:01.461Z,13.30
2022-10-29T06:38:28.472Z,13.30
2022-10-29T06:40:55.845Z,13.20
2022-10-29T06:43:22.688Z,13.10
2022-10-29T06:45:50.274Z,13.20
2022-10-29T06:48:21.644Z,13.10
2022-10-29T06:50:50.123Z,13.10
2022-10-29T06:53:19.005Z,13.10
2022-10-29T06:55:46.162Z,13.00
2022-10-29T06:58:15.313Z,13.00
2022-10-29T07:00:43.083Z,13.00
2022-10-29T07:03:18.054Z,13.00
2022-10-29T07:05:45.813Z,12.90
2022-10-29T07:08:12.792Z,12.90
2022-10-29T07:10:40.950Z,12.90
2022-10-29T07:13:07.779Z,13.00
2022-10-29T07:15:34.603Z,12.90
2022-10-29T07:18:06.277Z,12.90
2022-10-29T07:20:36.094Z,12.90
2022-10-29T07:23:02.956Z,12.90
2022-10-29T07:25:30.993Z,12.80
2022-10-29T07:28:11.196Z,12.80
2022-10-29T07:30:38.216Z,12.80
2022-10-29T07:33:05.140Z,12.80
2022-10-29T07:35:33.408Z,12.80
2022-10-29T07:38:05.397Z,12.80
2022-10-29T07:40:46.074Z,12.70
2022-10-29T07:43:13.003Z,12.70
2022-10-29T07:45:39.844Z,12.70
2022-10-29T07:48:07.959Z,12.70
2022-10-29T07:50:35.702Z,12.70
2022-10-29T07:53:03.784Z,12.70
2022-10-29T07:58:05.406Z,12.60
2022-10-29T08:00:37.766Z,12.60
2022-10-29T08:03:05.661Z,12.60
2022-10-29T08:05:33.148Z,12.60
2022-10-29T08:08:00.730Z,12.60
2022-10-29T08:10:28.427Z,12.60
2022-10-29T08:12:58.075Z,12.60
2022-10-29T08:15:28.163Z,12.50
2022-10-29T08:17:55.248Z,12.60
2022-10-29T08:20:24.235Z,12.60
2022-10-29T08:22:51.075Z,12.60
2022-10-29T08:25:18.223Z,12.50
2022-10-29T08:27:45.544Z,12.50
2022-10-29T08:30:13.836Z,12.50
2022-10-29T08:32:47.193Z,12.50
2022-10-29T08:35:14.677Z,12.50
2022-10-29T08:37:45.175Z,12.40
2022-10-29T08:40:35.993Z,12.40
2022-10-29T08:43:08.646Z,12.50
2022-10-29T08:45:45.522Z,12.40
2022-10-29T08:48:48.256Z,12.40
2022-10-29T08:51:33.860Z,12.40
2022-10-29T08:54:25.599Z,12.40
2022-10-29T08:56:57.561Z,12.40
2022-10-29T08:59:26.130Z,12.30
2022-10-29T09:01:53.877Z,12.30
2022-10-29T09:04:38.271Z,12.30
2022-10-29T09:07:46.978Z,12.30
2022-10-29T09:10:43.772Z,12.20
2022-10-29T09:13:21.191Z,12.30
2022-10-29T09:15:57.560Z,12.20
2022-10-29T09:18:43.345Z,12.20
2022-10-29T09:21:38.020Z,12.20
2022-10-29T09:24:29.104Z,12.30
2022-10-29T09:27:11.787Z,12.20
2022-10-29T09:29:49.499Z,12.20
2022-10-29T09:32:35.455Z,12.20
2022-10-29T09:35:14.704Z,12.30
2022-10-29T09:38:00.363Z,12.30
2022-10-29T09:40:42.901Z,12.30
2022-10-29T09:43:15.850Z,12.30
2022-10-29T09:45:52.673Z,12.30
2022-10-29T09:48:30.005Z,12.40
2022-10-29T09:51:22.920Z,12.40
2022-10-29T09:53:51.512Z,12.40
2022-10-29T09:56:18.534Z,12.40
2022-10-29T09:58:50.748Z,12.40
2022-10-29T10:01:18.012Z,12.40
2022-10-29T10:03:48.779Z,12.40
2022-10-29T10:06:17.089Z,12.50
2022-10-29T10:09:05.370Z,12.50
2022-10-29T10:11:43.912Z,12.50
2022-10-29T10:14:31.280Z,12.50
2022-10-29T10:16:59.334Z,12.50
2022-10-29T10:19:28.709Z,12.50
2022-10-29T10:22:00.692Z,12.50
2022-10-29T10:24:32.741Z,12.50
2022-10-29T10:27:00.347Z,12.60
2022-10-29T10:29:28.670Z,12.60
2022-10-29T10:31:55.423Z,12.60
2022-10-29T10:34:46.470Z,12.60
2022-10-29T10:37:20.711Z,12.70
2022-10-29T10:40:06.332Z,12.70
2022-10-29T10:42:39.413Z,12.70
2022-10-29T10:45:14.716Z,12.80
2022-10-29T10:47:48.248Z,12.80
2022-10-29T10:50:25.242Z,12.80
2022-10-29T10:52:57.070Z,12.70
2022-10-29T10:55:24.212Z,12.70
2022-10-29T10:58:00.909Z,12.70
2022-10-29T11:00:31.762Z,12.70
2022-10-29T11:03:09.114Z,12.70
2022-10-29T11:05:41.122Z,12.70
2022-10-29T11:08:18.622Z,12.70
2022-10-29T11:10:52.195Z,12.70
2022-10-29T11:13:23.237Z,12.70
2022-10-29T11:16:28.031Z,12.70
2022-10-29T11:19:04.212Z,12.70
2022-10-29T11:21:46.216Z,12.70
2022-10-29T11:24:41.707Z,12.70
2022-10-29T11:27:29.507Z,12.80
2022-10-29T11:30:15.413Z,12.80
2022-10-29T11:32:51.292Z,12.80
2022-10-29T11:35:39.902Z,12.70
2022-10-29T11:38:16.764Z,12.70
2022-10-29T11:40:46.322Z,12.80
2022-10-29T11:43:15.260Z,12.80
2022-10-29T11:46:19.594Z,12.70
2022-10-29T11:49:07.302Z,12.80
2022-10-29T11:52:08.380Z,12.70
2022-10-29T11:54:56.148Z,12.70
2022-10-29T11:57:31.746Z,12.70
2022-10-29T12:00:09.796Z,12.70
2022-10-29T12:03:00.861Z,12.70
2022-10-29T12:05:41.989Z,12.70
2022-10-29T12:08:50.345Z,12.70
2022-10-29T12:11:26.295Z,12.60
2022-10-29T12:14:26.229Z,12.60
2022-10-29T12:17:19.456Z,12.60
2022-10-29T12:20:01.047Z,12.50
2022-10-29T12:22:32.294Z,12.50
2022-10-29T12:25:29.542Z,12.50
2022-10-29T12:29:06.763Z,12.50
2022-10-29T12:31:59.784Z,12.50
2022-10-29T12:34:36.414Z,12.40
2022-10-29T12:37:35.042Z,12.50
2022-10-29T12:40:28.278Z,12.50
2022-10-29T12:43:05.453Z,12.50
2022-10-29T12:46:19.457Z,12.50
2022-10-29T12:48:50.690Z,12.40
2022-10-29T12:51:39.931Z,12.40
2022-10-29T12:54:29.472Z,12.40
2022-10-29T12:57:03.064Z,12.40
2022-10-29T12:59:35.474Z,12.40
2022-10-29T13:02:17.666Z,12.50
2022-10-29T13:05:09.720Z,12.50
2022-10-29T13:07:38.699Z,12.50
2022-10-29T13:10:23.779Z,12.40
2022-10-29T13:12:58.720Z,12.40
2022-10-29T13:15:36.926Z,12.50
2022-10-29T13:18:17.344Z,12.50
2022-10-29T13:20:48.476Z,12.50
2022-10-29T13:23:24.127Z,12.60
2022-10-29T13:25:52.586Z,12.60
2022-10-29T13:28:19.365Z,12.60
2022-10-29T13:30:48.243Z,12.60
2022-10-29T13:33:24.185Z,12.60
2022-10-29T13:35:57.964Z,12.70
2022-10-29T13:39:05.058Z,12.70
2022-10-29T13:41:42.756Z,12.70
2022-10-29T13:44:24.365Z,12.70
2022-10-29T13:47:21.549Z,12.70
2022-10-29T13:49:49.723Z,12.60
2022-10-29T13:52:19.157Z,12.60
2022-10-29T13:54:55.318Z,12.60
2022-10-29T13:57:59.716Z,12.50
2022-10-29T14:00:28.087Z,12.50
2022-10-29T14:03:15.148Z,12.50
2022-10-29T14:05:52.968Z,12.50
2022-10-29T14:08:33.373Z,12.50
2022-10-29T14:11:01.389Z,12.50
2022-10-29T14:13:50.104Z,12.50
2022-10-29T14:16:20.628Z,12.50
2022-10-29T14:18:51.503Z,12.50
2022-10-29T14:21:21.749Z,12.50
2022-10-29T14:24:10.211Z,12.50
2022-10-29T14:26:40.095Z,12.40
2022-10-29T14:29:33.499Z,12.50
2022-10-29T14:32:15.587Z,12.50
2022-10-29T14:34:45.217Z,12.40
2022-10-29T14:37:25.571Z,12.40
2022-10-29T14:39:59.706Z,12.40
2022-10-29T14:42:43.003Z,12.30
2022-10-29T14:45:28.604Z,12.30
2022-10-29T14:48:03.252Z,12.30
2022-10-29T14:50:31.189Z,12.30
2022-10-29T14:53:07.819Z,12.30
2022-10-29T14:55:38.925Z,12.30
2022-10-29T14:58:14.789Z,12.30
2022-10-29T15:00:58.715Z,12.30
2022-10-29T15:03:29.409Z,12.20
2022-10-29T15:06:13.921Z,12.30
2022-10-29T15:08:43.316Z,12.20
2022-10-29T15:11:32.206Z,12.20
2022-10-29T15:13:59.748Z,12.20
2022-10-29T15:16:27.386Z,12.20
2022-10-29T15:18:57.003Z,12.20
2022-10-29T15:21:32.560Z,12.20
2022-10-29T15:24:09.965Z,12.20
2022-10-29T15:26:45.500Z,12.10
2022-10-29T15:29:13.044Z,12.10
2022-10-29T15:31:58.526Z,12.10
2022-10-29T15:34:36.362Z,12.10
2022-10-29T15:37:18.444Z,12.10
2022-10-29T15:40:09.179Z,12.10
2022-10-29T15:42:36.943Z,12.00
2022-10-29T15:47:55.033Z,12.00
2022-10-29T15:50:33.967Z,12.10
2022-10-29T15:53:05.714Z,12.10
2022-10-29T15:55:38.482Z,12.10
2022-10-29T15:58:14.791Z,12.10
2022-10-29T16:00:42.111Z,12.10
2022-10-29T16:03:19.142Z,12.10
2022-10-29T16:05:51.755Z,12.10
2022-10-29T16:08:28.464Z,12.10
2022-10-29T16:10:57.078Z,12.10
2022-10-29T16:13:25.902Z,12.20
2022-10-29T16:15:52.787Z,12.20
2022-10-29T16:18:20.019Z,12.20
2022-10-29T16:20:47.404Z,12.20
2022-10-29T16:23:14.909Z,12.20
2022-10-29T16:25:41.826Z,12.20
2022-10-29T16:28:09.878Z,12.20
2022-10-29T16:33:11.551Z,12.20
2022-10-29T16:35:38.373Z,12.20
2022-10-29T16:38:05.283Z,12.20
2022-10-29T16:40:32.107Z,12.20
2022-10-29T16:42:59.301Z,12.20
2022-10-29T16:45:29.973Z,12.20
2022-10-29T16:47:58.263Z,12.20
2022-10-29T16:50:28.173Z,12.20
2022-10-29T16:53:06.448Z,12.20
2022-10-29T16:55:36.122Z,12.20
2022-10-29T16:58:03.335Z,12.10
2022-10-29T17:00:33.071Z,12.10
2022-10-29T17:03:04.827Z,12.10
2022-10-29T17:05:39.581Z,12.10
2022-10-29T17:08:07.165Z,12.10
2022-10-29T17:10:34.721Z,12.20
2022-10-29T17:13:02.021Z,12.20
2022-10-29T17:15:28.885Z,12.10
2022-10-29T17:17:55.877Z,12.20
2022-10-29T17:20:22.974Z,12.20
2022-10-29T17:22:49.896Z,12.20
2022-10-29T17:25:16.825Z,12.20
2022-10-29T17:27:43.957Z,12.20
2022-10-29T17:30:11.364Z,12.20
2022-10-29T17:32:38.316Z,12.20
2022-10-29T17:35:05.525Z,12.10
2022-10-29T17:37:32.539Z,12.10
2022-10-29T17:40:03.172Z,12.10
2022-10-29T17:42:34.026Z,12.10
2022-10-29T17:45:00.849Z,12.10
2022-10-29T17:47:27.794Z,12.10
2022-10-29T17:49:54.799Z,12.10
2022-10-29T17:52:22.366Z,12.10
2022-10-29T17:54:49.233Z,12.10
2022-10-29T17:57:16.048Z,12.10
2022-10-29T17:59:42.874Z,12.10
2022-10-29T18:02:11.567Z,12.10
2022-10-29T18:04:38.778Z,12.10
2022-10-29T18:07:05.681Z,12.00
2022-10-29T18:09:32.503Z,12.00
2022-10-29T18:11:59.390Z,12.00
2022-10-29T18:14:26.205Z,12.00
2022-10-29T18:16:53.013Z,12.00
2022-10-29T18:19:19.854Z,12.00
2022-10-29T18:21:46.734Z,12.00
2022-10-29T18:24:13.640Z,12.00
2022-10-29T18:26:40.540Z,12.00
2022-10-29T18:29:12.055Z,12.00
2022-10-29T18:31:42.230Z,12.00
2022-10-29T18:34:09.736Z,12.00
2022-10-29T18:36:37.029Z,12.00
2022-10-29T18:39:05.160Z,12.00
2022-10-29T18:41:32.349Z,12.00
2022-10-29T18:43:59.794Z,12.00
2022-10-29T18:46:27.004Z,12.00
2022-10-29T18:48:53.972Z,12.00
2022-10-29T18:51:26.203Z,12.00
2022-10-29T18:53:54.442Z,12.00
2022-10-29T18:56:22.522Z,12.00
2022-10-29T18:58:49.767Z,12.00
2022-10-29T19:01:19.484Z,12.00
2022-10-29T19:03:57.756Z,12.00
2022-10-29T19:06:27.409Z,12.00
2022-10-29T19:08:54.922Z,12.00
2022-10-29T19:11:24.966Z,12.00
2022-10-29T19:13:56.530Z,12.10
2022-10-29T19:16:24.379Z,12.10
2022-10-29T19:18:58.996Z,12.10
2022-10-29T19:21:27.030Z,12.10
2022-10-29T19:23:55.767Z,12.20
2022-10-29T19:26:23.094Z,12.20
2022-10-29T19:28:49.980Z,12.20
2022-10-29T19:31:22.560Z,12.20
2022-10-29T19:33:50.917Z,12.20
2022-10-29T19:36:18.726Z,12.20
2022-10-29T19:38:46.170Z,12.10
2022-10-29T19:41:13.608Z,12.10
2022-10-29T19:43:40.817Z,12.10
2022-10-29T19:46:09.192Z,12.10
2022-10-29T19:48:36.410Z,12.10
2022-10-29T19:51:03.403Z,12.20
2022-10-29T19:53:30.872Z,12.20
2022-10-29T19:55:57.999Z,12.10
2022-10-29T19:58:26.817Z,12.20
2022-10-29T20:00:54.256Z,12.20
2022-10-29T20:03:21.567Z,12.20
2022-10-29T20:05:49.111Z,12.20
2022-10-29T20:08:16.512Z,12.20
2022-10-29T20:10:43.757Z,12.20
2022-10-29T20:13:10.671Z,12.10
2022-10-29T20:15:40.117Z,12.10
2022-10-29T20:18:07.126Z,12.00
2022-10-29T20:20:33.974Z,12.00
2022-10-29T20:23:01.397Z,12.00
2022-10-29T20:25:28.660Z,12.00
2022-10-29T20:27:55.548Z,12.00
2022-10-29T20:30:22.499Z,12.00
2022-10-29T20:32:50.040Z,12.00
2022-10-29T20:35:17.690Z,12.00
2022-10-29T20:37:44.500Z,12.00
2022-10-29T20:40:12.300Z,12.00
2022-10-29T20:42:39.244Z,12.00
2022-10-29T20:45:06.871Z,12.00
2022-10-29T20:47:33.698Z,12.00
2022-10-29T20:50:00.501Z,12.00
2022-10-29T20:52:27.738Z,12.00
2022-10-29T20:54:54.552Z,11.90
2022-10-29T20:57:21.462Z,11.90
2022-10-29T20:59:48.308Z,11.80
2022-10-29T21:02:15.234Z,11.80
2022-10-29T21:04:42.237Z,11.80
2022-10-29T21:07:09.338Z,11.80
2022-10-29T21:09:36.143Z,11.70
2022-10-29T21:12:03.061Z,11.80
2022-10-29T21:14:29.900Z,11.80
2022-10-29T21:16:59.942Z,11.80
2022-10-29T21:19:28.177Z,11.80
2022-10-29T21:21:55.068Z,11.80
2022-10-29T21:24:21.869Z,11.80
2022-10-29T21:26:48.747Z,11.80
2022-10-29T21:29:15.632Z,11.70
2022-10-29T21:31:42.460Z,11.70
2022-10-29T21:34:09.367Z,11.70
2022-10-29T21:36:36.256Z,11.70
2022-10-29T21:39:03.136Z,11.70
2022-10-29T21:41:29.989Z,11.70
2022-10-29T21:43:56.858Z,11.70
2022-10-29T21:46:23.680Z,11.70
2022-10-29T21:48:50.490Z,11.70
2022-10-29T21:51:17.360Z,11.70
2022-10-29T21:53:44.206Z,11.70
2022-10-29T21:56:13.203Z,11.70
2022-10-29T21:58:40.100Z,11.70
2022-10-29T22:01:08.827Z,11.70
2022-10-29T22:03:38.519Z,11.60
2022-10-29T22:06:10.020Z,11.60
2022-10-29T22:08:37.037Z,11.60
2022-10-29T22:13:48.563Z,11.60
2022-10-29T22:16:15.535Z,11.70
2022-10-29T22:18:42.444Z,11.60
2022-10-29T22:21:15.066Z,11.70
2022-10-29T22:23:47.139Z,11.70
2022-10-29T22:26:15.813Z,11.70
2022-10-29T22:28:43.297Z,11.70
2022-10-29T22:31:10.820Z,11.70
2022-10-29T22:33:37.735Z,11.60
2022-10-29T22:36:05.982Z,11.60
2022-10-29T22:38:32.863Z,11.60
2022-10-29T22:41:04.517Z,11.50
2022-10-29T22:43:31.970Z,11.50
2022-10-29T22:45:58.795Z,11.50
2022-10-29T22:48:25.719Z,11.50
2022-10-29T22:51:21.510Z,11.50
2022-10-29T22:53:49.284Z,11.50
2022-10-29T22:56:21.635Z,11.50
2022-10-29T22:58:48.815Z,11.50
2022-10-29T23:01:18.140Z,11.50
2022-10-29T23:03:45.401Z,11.50
2022-10-29T23:06:14.892Z,11.50
2022-10-29T23:08:44.220Z,11.50
2022-10-29T23:11:21.489Z,11.50
2022-10-29T23:13:58.867Z,11.50
2022-10-29T23:16:28.104Z,11.50
2022-10-29T23:18:57.500Z,11.50
2022-10-29T23:21:24.471Z,11.40
2022-10-29T23:23:51.748Z,11.40
2022-10-29T23:26:20.578Z,11.40
2022-10-29T23:28:48.924Z,11.40
2022-10-29T23:31:19.155Z,11.40
2022-10-29T23:33:48.946Z,11.30
2022-10-29T23:36:17.132Z,11.30
2022-10-29T23:38:44.708Z,11.30
2022-10-29T23:41:11.762Z,11.30
2022-10-29T23:43:38.870Z,11.30
2022-10-29T23:46:05.933Z,11.30
2022-10-29T23:48:32.785Z,11.30
2022-10-29T23:50:59.691Z,11.20
2022-10-29T23:53:26.590Z,11.20
2022-10-29T23:55:53.468Z,11.30
2022-10-29T23:58:20.332Z,11.20
